Goulds, Florida
Current Conditions -  °F | °C
As of 7:53 PM on Monday 20 Oct 2014 (Local Time) from KTMB Reporting Station
Few Clouds Few Clouds  
Wind Chill: 74°   Ceiling: Unl
Heat Index: 74°   Visibility: 10mi
Dew Point: 71°   Wind: 12mph
Humidity: 91%   Direction: 110°ESE
Pressure: 29.96"   Gusts: NA
Location:  25.5586°N, 80.4556°W
Report Text: KTMB 202353Z 11010KT 10SM FEW090 23/22 A2996 RMK AO2 LTG DSNT E AND SE SLP145 60166 T02330217 10283 20228 53002
Loading
Personal Weather Stations






























Interactive Weather Map
Tropical Storm Tracking
New forecast layout! Learn more

10-Day Weather Forecast

Advertisements
Track Severe Weather on mobile